createdAt,value
2018-07-17T00:01:09.767Z,20.20
2018-07-17T00:03:38.228Z,20.00
2018-07-17T00:08:34.940Z,19.80
2018-07-17T00:11:03.436Z,19.80
2018-07-17T00:13:31.905Z,19.70
2018-07-17T00:16:00.376Z,19.80
2018-07-17T00:18:28.840Z,19.60
2018-07-17T00:20:57.332Z,19.60
2018-07-17T00:23:25.777Z,19.50
2018-07-17T00:28:22.375Z,19.30
2018-07-17T00:30:50.912Z,19.20
2018-07-17T00:35:47.496Z,19.10
2018-07-17T00:38:16.000Z,19.20
2018-07-17T00:40:44.469Z,19.20
2018-07-17T00:43:12.960Z,19.30
2018-07-17T00:45:41.404Z,19.30
2018-07-17T00:50:38.235Z,19.20
2018-07-17T00:53:06.813Z,19.30
2018-07-17T00:55:35.294Z,19.30
2018-07-17T00:58:03.775Z,19.30
2018-07-17T01:00:37.639Z,19.20
2018-07-17T01:03:11.581Z,19.10
2018-07-17T01:05:45.305Z,19.10
2018-07-17T01:08:19.255Z,19.10
2018-07-17T01:10:53.020Z,19.10
2018-07-17T01:13:26.071Z,18.90
2018-07-17T01:15:55.367Z,18.90
2018-07-17T01:18:23.850Z,19.00
2018-07-17T01:20:52.339Z,19.00
2018-07-17T01:23:20.825Z,18.90
2018-07-17T01:25:49.275Z,18.90
2018-07-17T01:28:17.752Z,18.90
2018-07-17T01:30:46.243Z,18.90
2018-07-17T01:33:14.722Z,18.90
2018-07-17T01:35:43.199Z,18.70
2018-07-17T01:38:11.686Z,18.80
2018-07-17T01:40:40.172Z,18.70
2018-07-17T01:43:08.660Z,18.70
2018-07-17T01:45:37.123Z,18.60
2018-07-17T01:48:05.693Z,18.70
2018-07-17T01:50:34.145Z,18.60
2018-07-17T01:53:02.615Z,18.70
2018-07-17T01:55:31.055Z,18.70
2018-07-17T01:57:59.524Z,18.60
2018-07-17T02:02:56.136Z,18.50
2018-07-17T02:05:24.575Z,18.50
2018-07-17T02:07:53.057Z,18.50
2018-07-17T02:10:21.517Z,18.60
2018-07-17T02:12:49.967Z,18.60
2018-07-17T02:15:18.440Z,18.50
2018-07-17T02:17:46.871Z,18.60
2018-07-17T02:20:15.325Z,18.50
2018-07-17T02:22:43.773Z,18.50
2018-07-17T02:25:12.240Z,18.60
2018-07-17T02:27:40.677Z,18.50
2018-07-17T02:32:37.266Z,18.40
2018-07-17T02:35:05.742Z,18.30
2018-07-17T02:37:34.197Z,18.30
2018-07-17T02:42:30.887Z,18.40
2018-07-17T02:44:59.286Z,18.40
2018-07-17T02:47:27.731Z,18.20
2018-07-17T02:49:56.195Z,18.10
2018-07-17T02:54:52.784Z,18.00
2018-07-17T02:57:21.247Z,18.10
2018-07-17T02:59:49.699Z,18.10
2018-07-17T03:02:18.135Z,18.00
2018-07-17T03:04:46.596Z,17.90
2018-07-17T03:07:15.047Z,17.90
2018-07-17T03:09:43.504Z,17.90
2018-07-17T03:12:12.016Z,17.90
2018-07-17T03:17:08.616Z,17.70
2018-07-17T03:19:37.117Z,17.60
2018-07-17T03:22:05.572Z,17.60
2018-07-17T03:24:34.148Z,17.60
2018-07-17T03:27:02.543Z,17.60
2018-07-17T03:29:30.996Z,17.60
2018-07-17T03:31:59.453Z,17.60
2018-07-17T03:34:27.953Z,17.60
2018-07-17T03:36:56.418Z,17.50
2018-07-17T03:39:24.870Z,17.50
2018-07-17T03:41:53.348Z,17.50
2018-07-17T03:44:21.904Z,17.50
2018-07-17T03:46:50.365Z,17.60
2018-07-17T03:51:47.021Z,17.50
2018-07-17T03:54:15.471Z,17.60
2018-07-17T03:56:43.927Z,17.60
2018-07-17T03:59:12.403Z,17.60
2018-07-17T04:01:40.867Z,17.70
2018-07-17T04:04:09.304Z,17.70
2018-07-17T04:06:37.785Z,17.70
2018-07-17T04:09:07.285Z,17.90
2018-07-17T04:11:35.766Z,18.10
2018-07-17T04:14:04.339Z,18.20
2018-07-17T04:16:32.883Z,18.40
2018-07-17T04:19:01.416Z,18.20
2018-07-17T04:21:29.916Z,18.30
2018-07-17T04:23:58.369Z,18.60
2018-07-17T04:26:26.827Z,18.60
2018-07-17T04:28:55.295Z,18.70
2018-07-17T04:31:23.759Z,18.70
2018-07-17T04:33:52.226Z,18.80
2018-07-17T04:36:20.744Z,19.10
2018-07-17T04:38:49.215Z,19.20
2018-07-17T04:41:17.683Z,19.20
2018-07-17T04:43:46.159Z,19.20
2018-07-17T04:46:14.687Z,19.60
2018-07-17T04:48:43.139Z,19.30
2018-07-17T04:51:11.613Z,19.40
2018-07-17T04:53:40.147Z,19.40
2018-07-17T04:56:08.643Z,19.70
2018-07-17T04:58:37.125Z,19.80
2018-07-17T05:01:05.880Z,20.20
2018-07-17T05:03:34.505Z,20.50
2018-07-17T05:08:31.338Z,20.20
2018-07-17T05:11:00.239Z,20.30
2018-07-17T05:15:57.453Z,20.30
2018-07-17T05:18:25.940Z,20.10
2018-07-17T05:20:54.575Z,20.00
2018-07-17T05:23:23.076Z,20.40
2018-07-17T05:28:20.178Z,20.90
2018-07-17T05:30:48.871Z,20.50
2018-07-17T05:33:17.332Z,20.70
2018-07-17T05:35:45.781Z,21.30
2018-07-17T05:38:14.253Z,21.20
2018-07-17T05:40:42.692Z,21.20
2018-07-17T05:43:11.176Z,21.30
2018-07-17T05:45:39.682Z,21.40
2018-07-17T05:48:08.223Z,21.30
2018-07-17T05:50:36.696Z,21.40
2018-07-17T05:53:05.195Z,21.30
2018-07-17T05:55:33.640Z,21.50
2018-07-17T05:58:02.132Z,21.40
2018-07-17T06:00:30.617Z,21.80
2018-07-17T06:02:59.089Z,22.10
2018-07-17T06:05:27.569Z,22.10
2018-07-17T06:12:52.351Z,21.60
2018-07-17T06:15:20.866Z,21.50
2018-07-17T06:20:17.472Z,22.00
2018-07-17T06:22:45.943Z,22.00
2018-07-17T06:25:14.451Z,22.10
2018-07-17T06:27:44.142Z,22.10
2018-07-17T06:30:12.577Z,22.60
2018-07-17T06:32:41.035Z,22.60
2018-07-17T06:35:09.591Z,22.50
2018-07-17T06:37:38.065Z,22.50
2018-07-17T06:40:06.523Z,22.60
2018-07-17T06:42:34.963Z,22.40
2018-07-17T06:45:03.444Z,22.40
2018-07-17T06:47:31.889Z,22.90
2018-07-17T06:50:00.376Z,23.20
2018-07-17T06:52:28.823Z,23.30
2018-07-17T06:54:57.282Z,23.80
2018-07-17T06:57:25.775Z,23.60
2018-07-17T06:59:54.244Z,23.70
2018-07-17T07:02:22.749Z,23.40
2018-07-17T07:04:51.223Z,23.50
2018-07-17T07:07:19.675Z,23.70
2018-07-17T07:09:48.128Z,23.80
2018-07-17T07:12:16.597Z,23.90
2018-07-17T07:14:45.103Z,24.00
2018-07-17T07:17:13.574Z,24.00
2018-07-17T07:19:42.043Z,24.40
2018-07-17T07:22:10.491Z,24.20
2018-07-17T07:24:38.972Z,24.20
2018-07-17T07:27:07.437Z,24.30
2018-07-17T07:29:35.948Z,24.70
2018-07-17T07:32:04.447Z,24.80
2018-07-17T07:34:33.048Z,24.70
2018-07-17T07:37:01.483Z,25.10
2018-07-17T07:39:29.944Z,25.00
2018-07-17T07:41:58.384Z,24.90
2018-07-17T07:44:26.840Z,25.20
2018-07-17T07:46:55.284Z,25.40
2018-07-17T07:49:23.775Z,25.60
2018-07-17T07:51:52.219Z,25.70
2018-07-17T07:54:20.677Z,25.50
2018-07-17T07:56:49.136Z,25.40
2018-07-17T08:01:45.752Z,25.70
2018-07-17T08:04:14.221Z,25.90
2018-07-17T08:06:42.676Z,26.10
2018-07-17T08:09:11.123Z,26.30
2018-07-17T08:11:39.640Z,26.50
2018-07-17T08:14:08.175Z,26.40
2018-07-17T08:16:36.623Z,26.50
2018-07-17T08:19:05.088Z,26.60
2018-07-17T08:21:33.539Z,26.50
2018-07-17T08:24:01.983Z,26.60
2018-07-17T08:26:30.489Z,26.70
2018-07-17T08:28:58.944Z,26.60
2018-07-17T08:31:27.399Z,26.70
2018-07-17T08:33:55.852Z,26.80
2018-07-17T08:36:24.368Z,26.60
2018-07-17T08:38:52.857Z,26.60
2018-07-17T08:41:21.323Z,26.40
2018-07-17T08:43:49.772Z,26.70
2018-07-17T08:48:46.384Z,26.90
2018-07-17T08:51:14.853Z,26.50
2018-07-17T08:53:43.311Z,26.50
2018-07-17T08:56:11.762Z,26.90
2018-07-17T08:58:40.215Z,26.80
2018-07-17T09:01:09.043Z,27.10
2018-07-17T09:03:37.519Z,27.10
2018-07-17T09:06:06.009Z,27.10
2018-07-17T09:11:02.628Z,27.10
2018-07-17T09:13:31.089Z,27.10
2018-07-17T09:15:59.595Z,27.30
2018-07-17T09:18:28.149Z,27.50
2018-07-17T09:20:56.616Z,27.70
2018-07-17T09:23:25.049Z,27.50
2018-07-17T09:25:53.512Z,27.70
2018-07-17T09:28:22.050Z,27.90
2018-07-17T09:30:55.856Z,27.90
2018-07-17T09:33:24.343Z,28.10
2018-07-17T09:35:52.893Z,28.20
2018-07-17T09:38:21.349Z,28.10
2018-07-17T09:40:49.857Z,28.40
2018-07-17T09:43:18.323Z,28.50
2018-07-17T09:45:46.800Z,28.20
2018-07-17T09:48:15.256Z,28.20
2018-07-17T09:50:43.700Z,28.40
2018-07-17T09:55:40.290Z,28.50
2018-07-17T09:58:08.835Z,28.60
2018-07-17T10:00:42.530Z,28.50
2018-07-17T10:03:11.001Z,28.40
2018-07-17T10:05:39.451Z,28.50
2018-07-17T10:08:07.921Z,28.60
2018-07-17T10:10:36.379Z,28.90
2018-07-17T10:13:04.861Z,28.90
2018-07-17T10:15:33.305Z,28.60
2018-07-17T10:18:01.774Z,28.70
2018-07-17T10:20:30.220Z,28.50
2018-07-17T10:22:58.676Z,28.90
2018-07-17T10:25:27.151Z,29.20
2018-07-17T10:30:23.891Z,28.90
2018-07-17T10:32:52.321Z,28.70
2018-07-17T10:35:20.753Z,29.20
2018-07-17T10:37:49.207Z,29.40
2018-07-17T10:40:17.651Z,29.40
2018-07-17T10:42:46.177Z,29.40
2018-07-17T10:45:14.703Z,29.40
2018-07-17T10:47:43.184Z,29.50
2018-07-17T10:50:11.636Z,29.50
2018-07-17T10:52:40.116Z,29.60
2018-07-17T10:55:08.586Z,29.90
2018-07-17T10:57:37.075Z,29.90
2018-07-17T11:00:05.593Z,29.90
2018-07-17T11:02:34.079Z,29.90
2018-07-17T11:05:02.535Z,29.80
2018-07-17T11:07:31.070Z,29.90
2018-07-17T11:09:59.523Z,29.80
2018-07-17T11:14:56.130Z,29.90
2018-07-17T11:17:24.700Z,29.60
2018-07-17T11:19:53.217Z,29.90
2018-07-17T11:22:21.677Z,29.50
2018-07-17T11:24:50.232Z,29.50
2018-07-17T11:27:18.681Z,29.50
2018-07-17T11:29:47.196Z,29.50
2018-07-17T11:32:15.682Z,29.60
2018-07-17T11:34:44.263Z,29.70
2018-07-17T11:37:12.717Z,29.50
2018-07-17T11:39:41.163Z,29.50
2018-07-17T11:42:09.608Z,29.80
2018-07-17T11:44:38.096Z,30.20
2018-07-17T11:47:06.611Z,30.40
2018-07-17T11:49:35.254Z,30.20
2018-07-17T11:52:03.709Z,29.90
2018-07-17T11:54:32.192Z,29.80
2018-07-17T11:57:00.643Z,29.40
2018-07-17T11:59:29.359Z,29.70
2018-07-17T12:01:57.695Z,29.70
2018-07-17T12:04:26.197Z,29.50
2018-07-17T12:06:55.089Z,29.70
2018-07-17T12:09:23.576Z,29.90
2018-07-17T12:14:20.207Z,29.90
2018-07-17T12:16:48.648Z,30.30
2018-07-17T12:19:17.103Z,30.20
2018-07-17T12:24:13.710Z,29.90
2018-07-17T12:26:42.168Z,30.20
2018-07-17T12:29:10.692Z,29.80
2018-07-17T12:31:39.114Z,29.60
2018-07-17T12:34:07.676Z,29.50
2018-07-17T12:36:36.130Z,29.40
2018-07-17T12:39:06.155Z,29.30
2018-07-17T12:41:34.598Z,29.20
2018-07-17T12:44:03.084Z,29.30
2018-07-17T12:46:31.535Z,29.00
2018-07-17T12:51:28.120Z,29.10
2018-07-17T12:53:56.629Z,29.60
2018-07-17T12:56:25.166Z,29.70
2018-07-17T12:58:53.644Z,29.50
2018-07-17T13:01:22.125Z,29.80
2018-07-17T13:03:50.584Z,30.20
2018-07-17T13:08:47.164Z,30.20
2018-07-17T13:11:15.640Z,30.30
2018-07-17T13:13:44.073Z,30.20
2018-07-17T13:16:12.585Z,30.00
2018-07-17T13:21:09.147Z,29.50
2018-07-17T13:23:37.646Z,28.70
2018-07-17T13:26:06.087Z,27.90
2018-07-17T13:28:34.556Z,27.40
2018-07-17T13:31:03.043Z,27.50
2018-07-17T13:33:31.510Z,27.10
2018-07-17T13:35:59.995Z,27.10
2018-07-17T13:38:28.460Z,27.20
2018-07-17T13:40:56.928Z,27.30
2018-07-17T13:43:25.354Z,26.90
2018-07-17T13:45:53.829Z,26.30
2018-07-17T13:48:22.293Z,25.60
2018-07-17T13:50:50.780Z,25.50
2018-07-17T13:53:19.289Z,25.40
2018-07-17T13:55:47.750Z,25.20
2018-07-17T13:58:16.224Z,25.20
2018-07-17T14:00:44.704Z,25.40
2018-07-17T14:03:13.159Z,25.20
2018-07-17T14:05:41.673Z,25.30
2018-07-17T14:08:10.149Z,25.30
2018-07-17T14:10:38.749Z,25.40
2018-07-17T14:13:07.187Z,25.60
2018-07-17T14:15:35.935Z,25.80
2018-07-17T14:18:04.465Z,26.00
2018-07-17T14:20:32.968Z,25.80
2018-07-17T14:23:01.413Z,26.00
2018-07-17T14:25:30.009Z,25.90
2018-07-17T14:27:58.472Z,26.00
2018-07-17T14:30:26.921Z,25.90
2018-07-17T14:32:55.423Z,25.80
2018-07-17T14:37:52.033Z,25.60
2018-07-17T14:40:20.531Z,25.60
2018-07-17T14:42:49.023Z,25.70
2018-07-17T14:45:17.513Z,25.70
2018-07-17T14:47:46.135Z,25.80
2018-07-17T14:50:14.619Z,25.60
2018-07-17T14:52:43.124Z,25.70
2018-07-17T14:55:11.940Z,25.60
2018-07-17T14:57:40.964Z,25.50
2018-07-17T15:00:10.487Z,25.60
2018-07-17T15:02:39.048Z,25.60
2018-07-17T15:05:08.481Z,25.70
2018-07-17T15:07:36.997Z,25.80
2018-07-17T15:10:06.316Z,25.80
2018-07-17T15:12:34.817Z,25.80
2018-07-17T15:15:03.323Z,25.80
2018-07-17T15:17:31.828Z,25.80
2018-07-17T15:20:00.275Z,25.60
2018-07-17T15:22:28.828Z,25.80
2018-07-17T15:24:57.262Z,26.00
2018-07-17T15:27:27.586Z,26.20
2018-07-17T15:29:58.451Z,26.40
2018-07-17T15:32:26.940Z,26.20
2018-07-17T15:34:55.397Z,26.30
2018-07-17T15:37:23.884Z,26.50
2018-07-17T15:39:52.340Z,26.80
2018-07-17T15:42:20.840Z,27.00
2018-07-17T15:44:49.287Z,27.10
2018-07-17T15:47:17.774Z,27.40
2018-07-17T15:49:46.234Z,27.40
2018-07-17T15:54:42.811Z,27.80
2018-07-17T15:57:11.325Z,28.00
2018-07-17T15:59:40.135Z,28.00
2018-07-17T16:02:08.623Z,28.10
2018-07-17T16:04:37.145Z,28.00
2018-07-17T16:07:05.623Z,27.90
2018-07-17T16:09:34.297Z,27.80
2018-07-17T16:12:02.747Z,27.90
2018-07-17T16:14:31.411Z,28.00
2018-07-17T16:16:59.765Z,28.10
2018-07-17T16:19:28.277Z,28.20
2018-07-17T16:21:56.752Z,28.30
2018-07-17T16:24:25.225Z,28.30
2018-07-17T16:26:53.692Z,28.20
2018-07-17T16:29:22.235Z,28.10
2018-07-17T16:31:50.697Z,28.10
2018-07-17T16:34:19.163Z,28.10
2018-07-17T16:36:47.692Z,28.20
2018-07-17T16:39:16.135Z,28.30
2018-07-17T16:41:44.606Z,28.40
2018-07-17T16:44:13.103Z,28.30
2018-07-17T16:46:41.548Z,28.30
2018-07-17T16:49:10.091Z,28.60
2018-07-17T16:51:38.560Z,29.00
2018-07-17T16:54:07.119Z,28.80
2018-07-17T16:56:35.563Z,28.80
2018-07-17T16:59:04.072Z,28.90
2018-07-17T17:01:32.519Z,29.00
2018-07-17T17:04:01.000Z,28.80
2018-07-17T17:06:29.485Z,28.90
2018-07-17T17:09:04.385Z,28.80
2018-07-17T17:11:32.825Z,28.80
2018-07-17T17:14:01.334Z,28.90
2018-07-17T17:16:29.846Z,29.00
2018-07-17T17:18:58.409Z,29.00
2018-07-17T17:21:26.885Z,29.00
2018-07-17T17:23:55.409Z,28.90
2018-07-17T17:26:23.861Z,29.00
2018-07-17T17:28:52.300Z,28.80
2018-07-17T17:31:20.788Z,28.60
2018-07-17T17:33:49.233Z,28.70
2018-07-17T17:36:17.747Z,28.80
2018-07-17T17:38:46.157Z,28.60
2018-07-17T17:41:14.768Z,28.50
2018-07-17T17:43:43.303Z,28.60
2018-07-17T17:46:11.759Z,28.70
2018-07-17T17:48:40.203Z,28.80
2018-07-17T17:53:36.951Z,28.80
2018-07-17T17:56:05.546Z,29.00
2018-07-17T17:58:34.853Z,29.00
2018-07-17T18:01:03.310Z,28.80
2018-07-17T18:03:31.754Z,28.90
2018-07-17T18:06:00.268Z,28.90
2018-07-17T18:08:28.740Z,28.90
2018-07-17T18:10:57.200Z,28.50
2018-07-17T18:13:25.687Z,28.30
2018-07-17T18:15:54.139Z,28.30
2018-07-17T18:18:22.606Z,28.30
2018-07-17T18:20:51.224Z,28.40
2018-07-17T18:23:19.664Z,28.40
2018-07-17T18:25:48.138Z,28.30
2018-07-17T18:28:16.600Z,28.00
2018-07-17T18:30:45.096Z,27.70
2018-07-17T18:33:13.551Z,27.50
2018-07-17T18:35:42.031Z,27.30
2018-07-17T18:38:10.496Z,27.20
2018-07-17T18:40:38.975Z,27.10
2018-07-17T18:43:07.607Z,27.00
2018-07-17T18:45:36.061Z,26.90
2018-07-17T18:48:04.657Z,26.80
2018-07-17T18:50:33.044Z,26.80
2018-07-17T18:53:01.553Z,26.70
2018-07-17T18:57:58.227Z,26.60
2018-07-17T19:00:26.689Z,26.50
2018-07-17T19:02:55.160Z,26.50
2018-07-17T19:05:23.616Z,26.40
2018-07-17T19:07:52.101Z,26.30
2018-07-17T19:10:20.553Z,26.20
2018-07-17T19:12:49.504Z,26.10
2018-07-17T19:20:14.279Z,25.40
2018-07-17T19:22:42.757Z,25.10
2018-07-17T19:25:11.243Z,25.00
2018-07-17T19:27:39.716Z,24.90
2018-07-17T19:30:08.196Z,24.60
2018-07-17T19:32:36.775Z,24.40
2018-07-17T19:35:05.261Z,24.10
2018-07-17T19:37:33.752Z,24.10
2018-07-17T19:40:05.065Z,24.00
2018-07-17T19:42:33.531Z,23.80
2018-07-17T19:45:01.999Z,23.70
2018-07-17T19:47:30.559Z,23.90
2018-07-17T19:52:27.225Z,23.40
2018-07-17T19:54:55.677Z,23.50
2018-07-17T19:57:24.188Z,23.50
2018-07-17T19:59:52.700Z,23.40
2018-07-17T20:04:49.337Z,23.30
2018-07-17T20:07:17.815Z,23.30
2018-07-17T20:09:46.333Z,23.20
2018-07-17T20:12:14.839Z,23.20
2018-07-17T20:14:43.308Z,23.20
2018-07-17T20:17:11.900Z,23.10
2018-07-17T20:19:40.387Z,23.00
2018-07-17T20:22:08.907Z,22.80
2018-07-17T20:24:37.450Z,22.90
2018-07-17T20:27:06.020Z,22.90
2018-07-17T20:29:34.520Z,22.80
2018-07-17T20:32:03.085Z,22.90
2018-07-17T20:34:31.556Z,22.90
2018-07-17T20:42:01.530Z,22.80
2018-07-17T20:44:30.173Z,22.80
2018-07-17T20:49:26.808Z,22.70
2018-07-17T20:51:55.312Z,22.40
2018-07-17T20:56:51.975Z,22.40
2018-07-17T21:01:48.635Z,22.50
2018-07-17T21:06:45.239Z,22.40
2018-07-17T21:09:13.811Z,22.40
2018-07-17T21:11:42.266Z,22.40
2018-07-17T21:14:10.780Z,22.50
2018-07-17T21:16:39.276Z,22.50
2018-07-17T21:19:07.765Z,22.40
2018-07-17T21:21:36.233Z,22.40
2018-07-17T21:24:04.736Z,22.40
2018-07-17T21:26:33.200Z,22.30
2018-07-17T21:29:01.685Z,22.20
2018-07-17T21:31:30.154Z,22.20
2018-07-17T21:33:58.748Z,22.20
2018-07-17T21:36:27.228Z,22.20
2018-07-17T21:38:55.785Z,22.20
2018-07-17T21:41:24.260Z,22.30
2018-07-17T21:43:52.736Z,22.30
2018-07-17T21:46:21.336Z,22.30
2018-07-17T21:48:50.170Z,22.30
2018-07-17T21:51:18.705Z,22.30
2018-07-17T21:53:47.289Z,22.30
2018-07-17T21:56:15.758Z,22.30
2018-07-17T21:58:44.219Z,22.30
2018-07-17T22:01:12.699Z,22.20
2018-07-17T22:06:09.283Z,22.00
2018-07-17T22:08:37.905Z,21.90
2018-07-17T22:11:06.686Z,21.90
2018-07-17T22:13:35.140Z,21.90
2018-07-17T22:16:03.629Z,21.90
2018-07-17T22:18:33.165Z,21.90
2018-07-17T22:21:01.643Z,21.90
2018-07-17T22:23:30.095Z,21.90
2018-07-17T22:25:58.559Z,21.90
2018-07-17T22:28:27.007Z,21.90
2018-07-17T22:30:55.511Z,21.90
2018-07-17T22:35:52.163Z,21.80
2018-07-17T22:40:48.796Z,21.70
2018-07-17T22:43:17.256Z,21.70
2018-07-17T22:45:45.867Z,21.70
2018-07-17T22:48:14.329Z,21.70
2018-07-17T22:50:42.821Z,21.60
2018-07-17T22:53:11.275Z,21.50
2018-07-17T22:55:39.756Z,21.60
2018-07-17T22:58:08.260Z,21.50
2018-07-17T23:00:36.763Z,21.40
2018-07-17T23:05:33.371Z,21.30
2018-07-17T23:08:01.944Z,21.40
2018-07-17T23:10:30.470Z,21.30
2018-07-17T23:12:58.943Z,21.40
2018-07-17T23:15:27.446Z,21.30
2018-07-17T23:20:24.107Z,21.00
2018-07-17T23:22:55.689Z,21.00
2018-07-17T23:25:25.356Z,20.90
2018-07-17T23:27:54.584Z,20.90
2018-07-17T23:30:23.060Z,20.90
2018-07-17T23:32:52.064Z,20.90
2018-07-17T23:35:21.653Z,20.90
2018-07-17T23:37:50.840Z,20.90
2018-07-17T23:40:19.634Z,20.80
2018-07-17T23:45:16.897Z,20.70
2018-07-17T23:47:46.073Z,20.60
2018-07-17T23:50:14.581Z,20.50
2018-07-17T23:52:43.109Z,20.40
2018-07-17T23:55:11.618Z,20.40
2018-07-17T23:57:40.121Z,20.30
